Time;durP1;ratioP1;P1;durP2;ratioP2;P2;SDS_P1;SDS_P2;PMS_P1;PMS_P2;Temp;Humidity;BMP_temperature;BMP_pressure;BME280_temperature;BME280_humidity;BME280_pressure;Samples;Min_cycle;Max_cycle;Signal;HPM_P1;HPM_P2
2023/12/18 00:01:39;;;;;;;29.50;9.00;;;;;;;3.63;92.89;101670.77;110147;1281;22385;-75
2023/12/18 00:04:30;;;;;;;26.50;8.30;;;;;;;3.62;92.84;101674.86;110192;1277;22098;-76
2023/12/18 00:07:21;;;;;;;20.30;7.50;;;;;;;3.62;92.86;101669.73;110180;1270;22157;-75
2023/12/18 00:10:12;;;;;;;27.00;7.80;;;;;;;3.60;92.88;101659.72;110161;1276;22159;-75
2023/12/18 00:13:03;;;;;;;30.20;7.40;;;;;;;3.60;92.71;101651.12;110187;1279;22110;-75
2023/12/18 00:15:55;;;;;;;24.70;7.40;;;;;;;3.59;92.79;101646.23;110174;1274;22125;-73
2023/12/18 00:18:45;;;;;;;24.60;6.60;;;;;;;3.58;92.73;101640.48;110193;1276;22262;-74
2023/12/18 00:21:34;;;;;;;;;;;;;;;3.56;92.54;101641.27;110193;1274;22618;-75
2023/12/18 00:24:25;;;;;;;22.50;6.00;;;;;;;3.52;92.47;101632.67;110246;1274;22871;-73
2023/12/18 00:27:16;;;;;;;20.00;5.70;;;;;;;3.50;92.77;101631.49;110220;1273;23020;-77
2023/12/18 00:30:10;;;;;;;20.70;5.90;;;;;;;3.50;92.79;101630.80;110174;1276;22126;-75
2023/12/18 00:33:01;;;;;;;16.90;5.30;;;;;;;3.50;92.72;101623.92;110176;1273;22412;-73
2023/12/18 00:35:51;;;;;;;20.60;5.90;;;;;;;3.47;92.62;101622.59;110190;1273;22660;-74
2023/12/18 00:38:42;;;;;;;20.20;5.50;;;;;;;3.47;92.77;101618.95;110195;1273;22676;-74
2023/12/18 00:41:33;;;;;;;21.60;6.00;;;;;;;3.46;92.48;101612.89;110213;1271;22160;-73
2023/12/18 00:44:24;;;;;;;18.00;5.20;;;;;;;3.44;92.56;101609.34;110247;1271;23253;-76
2023/12/18 00:47:15;;;;;;;18.70;5.80;;;;;;;3.45;92.71;101609.81;110208;1279;22927;-74
2023/12/18 00:50:09;;;;;;;18.60;5.10;;;;;;;3.42;92.54;101603.35;110260;1274;22366;-77
2023/12/18 00:53:00;;;;;;;22.80;6.20;;;;;;;3.40;92.49;101608.48;110181;1281;22133;-76
2023/12/18 00:55:51;;;;;;;19.20;4.90;;;;;;;3.38;92.60;101605.65;110193;1279;22091;-75
2023/12/18 00:58:42;;;;;;;21.10;6.20;;;;;;;3.36;92.53;101606.27;110131;1281;23003;-76
2023/12/18 01:01:32;;;;;;;23.10;6.50;;;;;;;3.34;92.56;101604.08;110202;1280;22250;-74
2023/12/18 01:04:23;;;;;;;18.30;4.80;;;;;;;3.32;92.47;101602.82;110180;1279;22175;-75
2023/12/18 01:07:14;;;;;;;23.20;5.50;;;;;;;3.31;92.60;101595.01;110182;1280;22163;-74
2023/12/18 01:10:06;;;;;;;16.40;5.50;;;;;;;3.29;92.55;101591.46;110188;1274;22116;-74
2023/12/18 01:12:57;;;;;;;21.60;5.80;;;;;;;3.29;92.59;101592.80;110169;1276;22962;-76
2023/12/18 01:15:46;;;;;;;;;;;;;;;3.29;92.65;101586.73;110188;1273;23072;-75
2023/12/18 01:18:37;;;;;;;20.30;5.10;;;;;;;3.29;92.67;101587.84;110172;1274;22192;-73
2023/12/18 01:21:27;;;;;;;18.70;4.80;;;;;;;3.29;92.75;101589.81;110238;1279;22232;-76
2023/12/18 01:24:18;;;;;;;17.00;4.80;;;;;;;3.29;92.68;101591.46;110211;1276;22150;-74
2023/12/18 01:27:09;;;;;;;17.00;4.80;;;;;;;3.29;92.59;101587.14;110235;1276;22093;-74
2023/12/18 01:30:00;;;;;;;19.40;5.80;;;;;;;3.29;92.60;101591.22;110254;1269;22239;-76
2023/12/18 01:32:51;;;;;;;19.00;4.80;;;;;;;3.28;92.50;101589.02;110248;1279;22152;-75
2023/12/18 01:35:40;;;;;;;;;;;;;;;3.28;92.53;101595.41;110218;1276;22347;-77
2023/12/18 01:38:31;;;;;;;19.90;7.20;;;;;;;3.26;92.50;101592.80;110180;1279;22209;-75
2023/12/18 01:41:22;;;;;;;24.60;6.50;;;;;;;3.26;92.47;101591.39;110261;1267;22186;-74
2023/12/18 01:44:13;;;;;;;20.90;7.00;;;;;;;3.24;92.23;101592.56;110192;1273;22292;-76
2023/12/18 01:47:02;;;;;;;;;;;;;;;3.21;92.08;101587.39;110196;1280;22302;-74
2023/12/18 01:49:54;;;;;;;19.60;6.10;;;;;;;3.17;92.12;101581.47;110144;1281;22101;-74
2023/12/18 01:52:45;;;;;;;21.70;7.70;;;;;;;3.14;92.14;101584.08;110206;1280;22152;-74
2023/12/18 01:55:36;;;;;;;23.60;7.60;;;;;;;3.11;92.14;101579.98;110272;1279;23045;-74
2023/12/18 01:58:28;;;;;;;23.20;7.40;;;;;;;3.09;92.25;101574.94;110205;1273;22961;-77
2023/12/18 02:01:19;;;;;;;23.70;6.70;;;;;;;3.07;92.29;101568.71;110184;1273;22065;-73
2023/12/18 02:04:10;;;;;;;20.70;6.60;;;;;;;3.06;92.48;101562.33;110244;1277;22234;-75
2023/12/18 02:07:04;;;;;;;22.50;6.70;;;;;;;3.05;92.50;101557.67;110190;1276;22181;-73
2023/12/18 02:09:55;;;;;;;26.80;6.60;;;;;;;3.04;92.42;101557.36;110170;1273;22151;-73
2023/12/18 02:12:45;;;;;;;27.30;6.50;;;;;;;3.03;92.54;101554.53;110182;1280;22091;-74
2023/12/18 02:15:34;;;;;;;;;;;;;;;3.02;92.53;101549.33;110213;1279;22501;-76
2023/12/18 02:18:25;;;;;;;22.60;6.20;;;;;;;3.01;92.67;101549.81;110210;1273;22158;-75
2023/12/18 02:21:21;;;;;;;24.00;6.80;;;;;;;3.02;92.72;101550.43;110195;1273;22995;-76
2023/12/18 02:24:12;;;;;;;21.30;5.40;;;;;;;3.03;92.75;101554.77;110218;1273;22343;-73
2023/12/18 02:27:03;;;;;;;22.90;5.10;;;;;;;3.03;92.52;101553.52;110223;1279;22163;-74
2023/12/18 02:29:54;;;;;;;15.50;5.30;;;;;;;3.02;92.52;101552.65;110205;1273;22095;-74
2023/12/18 02:32:45;;;;;;;19.40;5.40;;;;;;;3.00;92.68;101552.71;110189;1280;22182;-74
2023/12/18 02:35:36;;;;;;;19.60;5.50;;;;;;;2.99;92.57;101552.17;110264;1276;22965;-75
2023/12/18 02:38:26;;;;;;;18.70;4.30;;;;;;;2.97;92.64;101547.68;110263;1271;22986;-73
2023/12/18 02:41:17;;;;;;;16.50;4.30;;;;;;;2.96;92.68;101544.05;110269;1267;22306;-75
2023/12/18 02:44:08;;;;;;;19.90;5.20;;;;;;;2.96;92.98;101543.27;110263;1279;22138;-74
2023/12/18 02:46:59;;;;;;;15.90;4.00;;;;;;;2.98;92.95;101547.91;110136;1281;22890;-74
2023/12/18 02:49:50;;;;;;;20.00;5.10;;;;;;;2.99;92.98;101550.52;110140;1281;22165;-77
2023/12/18 02:52:41;;;;;;;14.10;3.20;;;;;;;2.99;92.98;101549.41;110160;1281;22238;-76
2023/12/18 02:55:32;;;;;;;15.30;3.40;;;;;;;2.99;92.99;101549.64;110228;1273;22106;-74
2023/12/18 02:58:22;;;;;;;;;;;;;;;2.99;92.97;101550.67;110302;1273;22726;-73
2023/12/18 03:01:13;;;;;;;15.40;4.40;;;;;;;2.98;92.86;101548.08;110227;1274;22495;-75
2023/12/18 03:04:02;;;;;;;;;;;;;;;2.95;92.70;101545.47;110271;1273;22469;-75
2023/12/18 03:06:53;;;;;;;14.90;3.40;;;;;;;2.92;92.68;101537.67;110236;1279;22247;-76
2023/12/18 03:09:45;;;;;;;16.10;4.00;;;;;;;2.90;92.78;101533.02;110201;1273;22985;-73
2023/12/18 03:12:36;;;;;;;13.60;3.00;;;;;;;2.88;92.85;101529.48;110185;1273;22103;-74
2023/12/18 03:15:28;;;;;;;13.70;2.70;;;;;;;2.89;93.05;101533.50;110225;1273;22399;-75
2023/12/18 03:18:18;;;;;;;14.70;3.80;;;;;;;2.89;93.07;101532.16;110258;1274;22168;-75
2023/12/18 03:21:12;;;;;;;12.10;2.70;;;;;;;2.90;93.08;101533.73;110230;1276;22225;-77
2023/12/18 03:24:03;;;;;;;15.00;3.30;;;;;;;2.89;93.03;101530.98;110188;1279;22234;-75
2023/12/18 03:26:54;;;;;;;13.20;3.10;;;;;;;2.88;92.88;101531.53;110195;1273;22168;-74
2023/12/18 03:29:44;;;;;;;13.90;3.00;;;;;;;2.87;92.75;101528.70;110211;1273;22086;-74
2023/12/18 03:32:35;;;;;;;16.60;3.20;;;;;;;2.86;92.90;101531.69;110254;1279;22851;-74
2023/12/18 03:35:26;;;;;;;14.80;3.30;;;;;;;2.85;92.91;101528.54;110237;1273;22199;-74
2023/12/18 03:38:17;;;;;;;14.00;3.30;;;;;;;2.85;92.98;101528.78;110187;1271;22084;-74
2023/12/18 03:41:08;;;;;;;15.10;3.00;;;;;;;2.85;92.98;101531.86;110186;1271;22205;-75
2023/12/18 03:43:59;;;;;;;12.90;2.60;;;;;;;2.85;93.01;101532.16;110181;1280;22176;-76
2023/12/18 03:46:50;;;;;;;16.70;4.20;;;;;;;2.85;93.02;101539.17;110173;1281;23351;-75
2023/12/18 03:49:40;;;;;;;14.10;2.90;;;;;;;2.84;92.88;101539.58;110155;1281;22307;-75
2023/12/18 03:52:31;;;;;;;17.70;4.50;;;;;;;2.83;92.76;101540.76;110202;1279;22859;-72
2023/12/18 03:55:20;;;;;;;;;;;;;;;2.80;92.63;101548.72;110212;1272;22354;-77
2023/12/18 03:58:11;;;;;;;22.40;5.90;;;;;;;2.77;92.48;101548.64;110253;1279;22255;-75
2023/12/18 04:01:02;;;;;;;15.80;5.00;;;;;;;2.72;92.08;101543.67;110228;1277;22852;-74
2023/12/18 04:03:53;;;;;;;24.60;6.40;;;;;;;2.67;91.93;101541.23;110216;1267;22206;-76
2023/12/18 04:06:45;;;;;;;18.80;5.10;;;;;;;2.62;92.00;101544.31;110214;1273;22078;-74
2023/12/18 04:09:39;;;;;;;18.90;5.20;;;;;;;2.58;92.20;101543.83;110169;1273;22981;-73
2023/12/18 04:12:30;;;;;;;18.40;4.70;;;;;;;2.53;92.04;101544.38;110208;1273;22231;-72
2023/12/18 04:15:21;;;;;;;16.10;4.10;;;;;;;2.48;92.08;101535.55;110193;1273;22118;-76
2023/12/18 04:18:10;;;;;;;;;;;;;;;2.42;92.02;101534.05;110205;1276;22392;-75
2023/12/18 04:21:01;;;;;;;19.40;4.00;;;;;;;2.37;92.18;101540.89;110193;1280;22595;-74
2023/12/18 04:23:50;;;;;;;;;;;;;;;2.33;92.40;101542.94;110252;1279;22539;-75
2023/12/18 04:26:41;;;;;;;17.20;4.30;;;;;;;2.28;92.42;101548.35;110263;1279;22876;-74
2023/12/18 04:29:30;;;;;;;;;;;;;;;2.27;92.50;101546.01;110228;1271;22528;-74
2023/12/18 04:32:20;;;;;;;14.10;3.80;;;;;;;2.24;92.51;101545.20;110277;1279;22296;-72
2023/12/18 04:35:11;;;;;;;18.30;4.10;;;;;;;2.21;92.47;101548.04;110195;1269;22465;-75
2023/12/18 04:38:02;;;;;;;14.20;3.20;;;;;;;2.19;92.56;101545.66;110289;1279;23032;-73
2023/12/18 04:40:53;;;;;;;14.40;3.80;;;;;;;2.17;92.49;101549.45;110194;1280;22155;-74
2023/12/18 04:43:42;;;;;;;;;;;;;;;2.16;92.51;101551.33;110206;1280;22713;-73
2023/12/18 04:46:37;;;;;;;14.60;3.20;;;;;;;2.14;92.61;101550.70;110212;1274;22148;-74
2023/12/18 04:49:28;;;;;;;14.90;3.60;;;;;;;2.12;92.75;101550.36;110197;1272;22323;-72
2023/12/18 04:52:19;;;;;;;15.10;3.50;;;;;;;2.12;92.97;101550.94;110256;1276;22086;-74
2023/12/18 04:55:10;;;;;;;12.80;2.80;;;;;;;2.13;92.96;101555.34;110246;1267;22195;-72
2023/12/18 04:58:01;;;;;;;13.40;2.80;;;;;;;2.12;92.71;101561.71;110283;1273;22242;-76
2023/12/18 05:00:52;;;;;;;11.10;3.10;;;;;;;2.10;92.63;101558.40;110217;1274;22087;-74
2023/12/18 05:03:43;;;;;;;12.80;3.40;;;;;;;2.08;92.53;101556.02;110254;1277;22160;-72
2023/12/18 05:06:34;;;;;;;12.60;3.20;;;;;;;2.05;92.50;101545.56;110240;1274;22269;-74
2023/12/18 05:09:25;;;;;;;12.90;2.90;;;;;;;2.04;92.59;101543.75;110212;1273;22912;-73
2023/12/18 05:12:16;;;;;;;16.30;3.60;;;;;;;2.01;92.61;101543.48;110243;1277;22544;-72
2023/12/18 05:15:05;;;;;;;;;;;;;;;1.98;92.57;101546.64;110235;1280;22403;-73
2023/12/18 05:17:56;;;;;;;13.40;3.50;;;;;;;1.96;92.85;101552.45;110269;1276;22699;-73
2023/12/18 05:20:49;;;;;;;13.30;3.80;;;;;;;1.96;92.74;101554.82;110230;1274;22237;-74
2023/12/18 05:23:40;;;;;;;15.00;4.40;;;;;;;1.92;92.74;101552.20;110196;1273;22224;-72
2023/12/18 05:26:31;;;;;;;15.40;4.30;;;;;;;1.89;92.87;101557.23;110220;1276;22094;-73
2023/12/18 05:29:22;;;;;;;17.30;4.50;;;;;;;1.89;93.08;101555.66;110223;1271;22338;-72
2023/12/18 05:32:11;;;;;;;;;;;;;;;1.89;93.37;101547.16;110299;1271;23166;-73
2023/12/18 05:35:02;;;;;;;17.20;5.10;;;;;;;1.89;93.72;101549.84;110307;1279;22345;-74
2023/12/18 05:37:52;;;;;;;13.60;4.70;;;;;;;1.92;93.94;101560.79;110143;1281;22989;-73
2023/12/18 05:40:43;;;;;;;18.90;4.60;;;;;;;1.96;94.22;101555.53;110155;1281;22919;-73
2023/12/18 05:43:34;;;;;;;19.80;5.60;;;;;;;2.00;94.27;101551.61;110206;1274;22903;-72
2023/12/18 05:46:25;;;;;;;22.00;6.10;;;;;;;2.03;94.25;101553.73;110205;1280;22146;-72
2023/12/18 05:49:16;;;;;;;16.70;4.70;;;;;;;2.05;94.38;101548.87;110214;1274;22200;-74
2023/12/18 05:52:07;;;;;;;15.20;4.70;;;;;;;2.07;94.31;101544.38;110211;1280;22182;-74
2023/12/18 05:54:58;;;;;;;19.20;5.40;;;;;;;2.11;94.44;101542.27;110217;1280;22950;-73
2023/12/18 05:57:47;;;;;;;;;;;;;;;2.13;94.46;101537.79;110231;1267;22558;-74
2023/12/18 06:00:38;;;;;;;16.30;4.50;;;;;;;2.15;94.59;101528.50;110199;1276;22159;-73
2023/12/18 06:03:28;;;;;;;16.00;5.20;;;;;;;2.17;94.48;101526.22;110199;1274;22165;-74
2023/12/18 06:06:19;;;;;;;19.50;6.00;;;;;;;2.20;94.56;101533.46;110154;1270;22178;-74
2023/12/18 06:09:10;;;;;;;20.30;5.80;;;;;;;2.22;94.64;101537.97;110212;1276;22132;-72
2023/12/18 06:12:01;;;;;;;19.00;5.70;;;;;;;2.25;94.61;101541.04;110201;1280;22179;-72
2023/12/18 06:14:52;;;;;;;16.50;5.10;;;;;;;2.26;94.38;101540.56;110233;1277;22152;-76
2023/12/18 06:17:43;;;;;;;20.40;6.00;;;;;;;2.27;94.24;101540.81;110197;1277;22786;-73
2023/12/18 06:20:33;;;;;;;19.50;6.00;;;;;;;2.27;94.22;101545.69;110210;1271;22216;-72
2023/12/18 06:23:24;;;;;;;22.00;5.70;;;;;;;2.27;94.01;101550.73;110310;1279;22115;-72
2023/12/18 06:26:15;;;;;;;20.10;6.70;;;;;;;2.26;93.91;101554.02;110214;1275;22286;-73
2023/12/18 06:29:06;;;;;;;19.50;5.40;;;;;;;2.24;93.78;101549.86;110195;1280;22206;-76
2023/12/18 06:31:57;;;;;;;20.90;6.00;;;;;;;2.21;93.73;101550.95;110166;1281;22696;-75
2023/12/18 06:34:49;;;;;;;14.80;4.30;;;;;;;2.19;93.87;101549.05;110161;1281;23119;-76
2023/12/18 06:37:42;;;;;;;18.10;4.70;;;;;;;2.18;93.95;101550.00;110314;1279;22786;-74
2023/12/18 06:40:33;;;;;;;21.00;5.50;;;;;;;2.18;94.00;101541.56;110290;1279;22107;-74
2023/12/18 06:43:24;;;;;;;16.90;6.00;;;;;;;2.16;93.85;101537.09;110305;1274;22098;-74
2023/12/18 06:46:15;;;;;;;18.90;5.70;;;;;;;2.14;93.91;101536.45;110230;1273;22848;-73
2023/12/18 06:49:04;;;;;;;;;;;;;;;2.14;94.21;101539.59;110238;1274;22322;-74
2023/12/18 06:51:54;;;;;;;19.70;5.50;;;;;;;2.15;94.38;101540.08;110211;1274;22095;-73
2023/12/18 06:54:45;;;;;;;21.70;6.60;;;;;;;2.16;94.38;101535.98;110199;1280;22103;-74
2023/12/18 06:57:34;;;;;;;;;;;;;;;2.16;94.36;101541.10;110201;1273;22815;-77
2023/12/18 07:00:25;;;;;;;21.30;7.10;;;;;;;2.15;94.47;101535.04;110174;1273;22148;-74
2023/12/18 07:03:17;;;;;;;19.70;6.50;;;;;;;2.16;94.60;101536.45;110156;1273;23011;-75
2023/12/18 07:06:08;;;;;;;19.50;6.80;;;;;;;2.18;94.56;101538.98;110180;1273;22545;-74
2023/12/18 07:09:00;;;;;;;21.30;6.00;;;;;;;2.19;94.42;101545.90;110124;1274;23121;-75
2023/12/18 07:11:51;;;;;;;22.30;6.20;;;;;;;2.19;94.37;101548.11;110118;1273;23116;-74
2023/12/18 07:14:43;;;;;;;;;;;;;;;2.19;94.31;101556.85;110155;1273;22364;-75
2023/12/18 07:17:34;;;;;;;24.10;8.10;;;;;;;2.18;94.32;101558.34;110192;1273;22883;-75
2023/12/18 07:20:25;;;;;;;33.60;11.70;;;;;;;2.17;94.29;101555.98;110155;1273;22748;-76
2023/12/18 07:23:16;;;;;;;32.30;11.00;;;;;;;2.17;94.36;101548.02;110207;1271;22322;-75
2023/12/18 07:26:08;;;;;;;32.00;12.00;;;;;;;2.18;94.48;101552.05;110191;1279;22530;-76
2023/12/18 07:28:59;;;;;;;29.80;10.40;;;;;;;2.20;94.76;101544.17;110166;1273;22129;-74
2023/12/18 07:31:50;;;;;;;32.70;13.40;;;;;;;2.23;94.72;101543.17;110194;1273;22834;-73
2023/12/18 07:34:41;;;;;;;33.00;12.20;;;;;;;2.25;94.82;101545.92;110171;1273;22127;-75
2023/12/18 07:37:32;;;;;;;30.40;11.50;;;;;;;2.28;94.86;101545.99;110192;1276;23053;-76
2023/12/18 07:40:24;;;;;;;28.70;10.90;;;;;;;2.32;95.04;101548.38;110213;1274;22269;-74
2023/12/18 07:43:15;;;;;;;26.60;8.20;;;;;;;2.35;95.13;101555.77;110167;1274;22113;-75
2023/12/18 07:46:07;;;;;;;29.80;9.10;;;;;;;2.39;95.13;101557.44;110194;1277;22811;-73
2023/12/18 07:48:57;;;;;;;29.60;7.80;;;;;;;2.43;95.18;101554.21;110196;1274;22168;-74
2023/12/18 07:51:48;;;;;;;24.30;8.20;;;;;;;2.47;95.17;101560.52;110200;1274;22267;-74
2023/12/18 07:54:39;;;;;;;26.90;8.70;;;;;;;2.51;95.22;101562.34;110152;1280;22225;-74
2023/12/18 07:57:30;;;;;;;30.20;10.90;;;;;;;2.55;95.35;101560.75;110269;1276;22560;-75
2023/12/18 08:00:21;;;;;;;33.90;10.40;;;;;;;2.60;95.47;101556.59;110254;1273;22668;-75
2023/12/18 08:03:12;;;;;;;23.10;8.90;;;;;;;2.66;95.62;101564.23;110187;1277;22816;-74
2023/12/18 08:06:03;;;;;;;25.00;9.10;;;;;;;2.72;95.72;101564.63;110197;1279;22169;-75
2023/12/18 08:08:54;;;;;;;21.20;6.40;;;;;;;2.79;95.79;101566.98;110213;1279;22204;-74
2023/12/18 08:11:45;;;;;;;21.50;6.30;;;;;;;2.85;95.88;101562.75;110213;1280;22243;-75
2023/12/18 08:14:36;;;;;;;23.50;7.40;;;;;;;2.92;95.92;101563.52;110205;1280;22192;-75
2023/12/18 08:17:26;;;;;;;22.20;6.40;;;;;;;3.01;96.21;101562.98;110209;1273;22144;-74
2023/12/18 08:20:18;;;;;;;20.40;6.20;;;;;;;3.11;96.27;101566.66;110305;1274;23055;-75
2023/12/18 08:23:09;;;;;;;20.10;4.90;;;;;;;3.20;96.26;101574.13;110221;1273;22137;-75
2023/12/18 08:26:00;;;;;;;19.40;6.50;;;;;;;3.30;96.25;101577.67;110165;1281;22479;-75
2023/12/18 08:28:50;;;;;;;18.80;6.00;;;;;;;3.38;96.20;101578.12;110156;1281;22179;-75
2023/12/18 08:31:39;;;;;;;;;;;;;;;3.45;96.17;101576.99;110176;1281;22685;-75
2023/12/18 08:34:31;;;;;;;21.40;6.30;;;;;;;3.53;96.25;101569.95;110141;1280;22255;-75
2023/12/18 08:37:22;;;;;;;19.80;7.30;;;;;;;3.59;96.15;101570.80;110202;1280;22055;-74
2023/12/18 08:40:14;;;;;;;24.10;7.00;;;;;;;3.65;96.19;101571.34;110220;1277;22140;-73
2023/12/18 08:43:04;;;;;;;25.30;9.60;;;;;;;3.73;96.18;101571.15;110193;1278;22150;-75
2023/12/18 08:45:56;;;;;;;25.00;9.50;;;;;;;3.81;96.15;101572.47;110219;1273;22307;-76
2023/12/18 08:48:46;;;;;;;33.20;10.20;;;;;;;3.89;96.03;101566.98;110206;1279;22194;-74
2023/12/18 08:51:35;;;;;;;;;;;;;;;3.95;95.93;101570.83;110203;1276;22410;-74
2023/12/18 08:54:26;;;;;;;25.00;7.80;;;;;;;4.01;96.06;101566.68;110189;1280;22891;-74
2023/12/18 08:57:17;;;;;;;23.70;6.40;;;;;;;4.10;96.24;101562.31;110205;1279;22387;-74
2023/12/18 09:00:11;;;;;;;21.20;6.10;;;;;;;4.22;96.39;101565.08;110211;1280;22083;-75
2023/12/18 09:03:02;;;;;;;17.40;4.90;;;;;;;4.35;96.32;101565.47;110200;1279;22884;-75
2023/12/18 09:05:53;;;;;;;16.70;4.90;;;;;;;4.48;96.40;101567.61;110194;1273;22068;-73
2023/12/18 09:08:44;;;;;;;19.10;4.80;;;;;;;4.62;96.47;101566.30;110202;1276;22268;-74
2023/12/18 09:11:35;;;;;;;19.90;4.10;;;;;;;4.76;96.40;101560.83;110242;1276;22338;-74
2023/12/18 09:14:26;;;;;;;16.90;4.10;;;;;;;4.90;96.40;101565.70;110302;1274;22167;-75
2023/12/18 09:17:17;;;;;;;15.90;3.50;;;;;;;5.04;96.45;101574.83;110206;1274;22915;-74
2023/12/18 09:20:10;;;;;;;15.90;3.10;;;;;;;5.18;96.30;101564.73;110218;1271;22948;-75
2023/12/18 09:23:05;;;;;;;14.30;2.70;;;;;;;5.31;96.21;101563.64;110174;1281;22163;-75
2023/12/18 09:25:55;;;;;;;12.00;2.80;;;;;;;5.44;95.96;101564.53;110235;1280;22193;-74
2023/12/18 09:28:46;;;;;;;9.10;2.10;;;;;;;5.60;95.78;101560.46;110173;1281;22743;-75
2023/12/18 09:31:37;;;;;;;8.30;1.90;;;;;;;5.75;95.71;101563.31;110174;1280;22280;-74
2023/12/18 09:34:29;;;;;;;15.00;2.50;;;;;;;5.89;95.49;101560.16;110316;1273;22367;-74
2023/12/18 09:37:20;;;;;;;10.10;1.90;;;;;;;6.05;95.42;101560.75;110229;1276;22207;-74
2023/12/18 09:40:10;;;;;;;;;;;;;;;6.20;95.08;101567.67;110328;1274;23225;-74
2023/12/18 09:43:03;;;;;;;8.70;1.80;;;;;;;6.35;95.16;101566.98;110306;1276;22086;-74
2023/12/18 09:45:55;;;;;;;8.80;1.80;;;;;;;6.48;94.92;101574.55;110221;1277;22386;-74
2023/12/18 09:48:46;;;;;;;8.90;1.90;;;;;;;6.58;94.73;101572.24;110216;1276;22110;-74
2023/12/18 09:51:40;;;;;;;7.10;1.40;;;;;;;6.68;94.46;101573.69;110191;1277;22218;-76
2023/12/18 09:54:32;;;;;;;5.80;1.20;;;;;;;6.78;94.19;101562.67;110187;1279;22084;-74
2023/12/18 09:57:24;;;;;;;5.80;1.10;;;;;;;6.88;93.83;101560.04;110193;1279;22674;-77
2023/12/18 10:00:16;;;;;;;5.90;0.90;;;;;;;6.97;93.66;101548.62;110186;1276;22173;-75
2023/12/18 10:03:07;;;;;;;3.60;0.70;;;;;;;7.06;93.39;101549.65;110196;1276;22132;-76
2023/12/18 10:05:58;;;;;;;3.40;0.80;;;;;;;7.14;92.77;101542.38;110181;1280;22096;-76
2023/12/18 10:08:49;;;;;;;;;;;;;;;7.20;92.39;101537.73;110236;1279;22406;-75
2023/12/18 10:11:41;;;;;;;4.00;0.80;;;;;;;7.28;92.41;101541.95;110284;1274;22160;-76
2023/12/18 10:14:34;;;;;;;3.80;0.80;;;;;;;7.33;92.03;101535.11;110267;1277;22175;-75
2023/12/18 10:17:25;;;;;;;4.40;1.10;;;;;;;7.41;92.11;101534.88;110204;1279;23195;-77
2023/12/18 10:20:16;;;;;;;3.70;0.80;;;;;;;7.52;91.37;101539.60;110298;1267;22182;-75
2023/12/18 10:23:08;;;;;;;3.90;0.70;;;;;;;7.61;91.42;101532.25;110264;1277;22359;-77
2023/12/18 10:26:04;;;;;;;6.00;0.70;;;;;;;7.67;91.57;101532.85;110148;1281;22100;-76
2023/12/18 10:28:55;;;;;;;3.50;0.70;;;;;;;7.72;91.23;101530.45;110175;1281;22103;-75
2023/12/18 10:31:47;;;;;;;3.30;0.70;;;;;;;7.77;91.09;101524.30;110150;1281;22586;-75
2023/12/18 10:34:38;;;;;;;6.80;0.80;;;;;;;7.82;90.01;101528.48;110087;1280;150804;-77
2023/12/18 10:37:31;;;;;;;5.50;0.80;;;;;;;7.88;89.68;101522.73;110198;1280;22187;-75
2023/12/18 10:40:25;;;;;;;4.10;0.90;;;;;;;7.95;89.21;101525.75;110201;1280;22104;-75
2023/12/18 10:43:22;;;;;;;5.80;0.80;;;;;;;8.03;88.70;101511.04;110281;1279;23040;-75
2023/12/18 10:46:14;;;;;;;5.60;0.90;;;;;;;8.09;88.80;101513.76;110218;1279;22169;-76
2023/12/18 10:49:08;;;;;;;7.60;1.10;;;;;;;8.12;87.32;101505.35;110198;1277;22991;-77
2023/12/18 10:52:00;;;;;;;8.50;1.20;;;;;;;8.18;87.28;101503.63;110198;1273;22198;-76
2023/12/18 10:54:51;;;;;;;7.50;0.90;;;;;;;8.23;88.05;101500.11;110259;1274;22210;-76
2023/12/18 10:57:44;;;;;;;4.60;0.80;;;;;;;8.24;87.81;101497.36;110240;1274;22195;-76
2023/12/18 11:00:37;;;;;;;4.10;0.70;;;;;;;8.25;87.41;101493.86;110202;1273;22173;-76
2023/12/18 11:03:29;;;;;;;5.60;0.90;;;;;;;8.30;87.17;101493.36;110138;1274;23140;-75
2023/12/18 11:06:21;;;;;;;3.80;0.70;;;;;;;8.36;86.51;101496.46;110179;1276;22814;-75
2023/12/18 11:09:11;;;;;;;3.10;0.70;;;;;;;8.44;85.60;101490.89;110229;1277;22133;-75
2023/12/18 11:12:03;;;;;;;3.10;0.80;;;;;;;8.48;85.88;101481.88;110278;1279;22303;-75
2023/12/18 11:15:05;;;;;;;2.90;0.80;;;;;;;8.51;86.08;101472.02;110258;1279;22152;-75
2023/12/18 11:18:05;;;;;;;5.80;0.90;;;;;;;8.52;84.72;101464.77;110183;1274;22171;-76
2023/12/18 11:20:58;;;;;;;7.50;1.00;;;;;;;8.53;84.49;101459.55;110198;1280;22227;-75
2023/12/18 11:23:51;;;;;;;5.90;0.80;;;;;;;8.53;83.99;101450.02;110196;1277;22107;-75
2023/12/18 11:26:44;;;;;;;5.50;0.90;;;;;;;8.54;83.32;101442.27;110204;1279;22190;-75
2023/12/18 11:29:42;;;;;;;9.30;1.40;;;;;;;8.57;83.03;101439.33;110198;1274;22145;-75
2023/12/18 11:32:47;;;;;;;5.20;1.20;;;;;;;8.58;83.03;101436.61;110158;1280;22107;-76
2023/12/18 11:35:39;;;;;;;8.60;1.30;;;;;;;8.57;82.96;101437.66;110171;1280;22132;-76
2023/12/18 11:38:34;;;;;;;5.00;1.10;;;;;;;8.55;82.67;101444.10;110165;1274;23029;-76
2023/12/18 11:41:42;;;;;;;6.50;1.10;;;;;;;8.52;82.17;101455.70;110143;1273;22162;-75
2023/12/18 11:44:37;;;;;;;5.40;0.90;;;;;;;8.50;81.87;101460.52;110147;1276;22776;-75
2023/12/18 11:47:30;;;;;;;6.40;1.00;;;;;;;8.48;82.03;101460.48;110189;1280;22157;-76
2023/12/18 11:50:24;;;;;;;6.20;1.30;;;;;;;8.46;81.97;101465.05;110161;1274;22176;-76
2023/12/18 11:53:34;;;;;;;6.90;1.20;;;;;;;8.45;82.05;101464.20;110177;1273;22246;-77
2023/12/18 11:56:27;;;;;;;9.10;1.50;;;;;;;8.44;82.32;101468.28;110142;1273;22291;-77
2023/12/18 11:59:19;;;;;;;8.80;1.70;;;;;;;8.43;82.21;101468.00;110128;1280;22367;-75
2023/12/18 12:02:12;;;;;;;6.80;1.50;;;;;;;8.42;81.58;101468.84;110143;1274;22336;-76
2023/12/18 12:05:05;;;;;;;7.30;1.30;;;;;;;8.42;81.82;101463.64;110155;1281;22275;-76
2023/12/18 12:07:56;;;;;;;9.00;1.30;;;;;;;8.41;81.71;101457.39;110132;1282;22931;-75
2023/12/18 12:10:49;;;;;;;6.10;1.20;;;;;;;8.41;81.23;101448.26;110147;1282;22728;-75
2023/12/18 12:13:39;;;;;;;8.50;1.30;;;;;;;8.42;81.23;101451.02;110145;1282;22256;-75
2023/12/18 12:16:31;;;;;;;8.00;1.40;;;;;;;8.40;81.52;101445.81;110210;1277;22157;-75
2023/12/18 12:19:34;;;;;;;5.90;1.00;;;;;;;8.38;81.28;101439.42;110156;1273;22905;-76
2023/12/18 12:22:25;;;;;;;7.00;1.30;;;;;;;8.36;81.11;101438.27;110215;1279;22100;-76
2023/12/18 12:25:16;;;;;;;12.20;1.30;;;;;;;8.34;81.24;101428.38;110200;1280;22127;-76
2023/12/18 12:28:07;;;;;;;5.40;0.90;;;;;;;8.32;81.29;101433.38;110211;1280;22530;-77
2023/12/18 12:30:58;;;;;;;6.10;1.20;;;;;;;8.30;81.05;101432.96;110180;1280;22253;-76
2023/12/18 12:33:50;;;;;;;7.70;1.20;;;;;;;8.29;80.77;101427.97;110221;1277;22869;-76
2023/12/18 12:36:45;;;;;;;6.80;1.00;;;;;;;8.28;80.76;101433.95;110129;1280;23059;-76
2023/12/18 12:39:36;;;;;;;5.30;1.20;;;;;;;8.27;80.42;101446.84;110189;1280;22182;-75
2023/12/18 12:42:27;;;;;;;6.60;1.30;;;;;;;8.27;80.59;101455.19;110186;1276;23142;-77
2023/12/18 12:45:18;;;;;;;9.40;1.60;;;;;;;8.26;80.42;101456.89;110228;1279;22162;-77
2023/12/18 12:48:11;;;;;;;6.00;1.30;;;;;;;8.27;80.33;101455.34;110258;1277;22785;-77
2023/12/18 12:51:01;;;;;;;6.30;1.10;;;;;;;8.31;79.98;101456.20;110219;1278;23089;-75
2023/12/18 12:53:53;;;;;;;4.10;1.10;;;;;;;8.37;79.70;101467.13;110243;1274;22198;-76
2023/12/18 12:56:45;;;;;;;6.10;1.30;;;;;;;8.42;79.87;101466.91;110242;1279;22109;-76
2023/12/18 12:59:36;;;;;;;8.20;1.50;;;;;;;8.44;79.31;101457.17;110282;1273;22258;-76
2023/12/18 13:02:27;;;;;;;10.30;1.30;;;;;;;8.44;79.44;101450.79;110266;1278;22915;-77
2023/12/18 13:05:18;;;;;;;7.60;1.40;;;;;;;8.47;78.79;101451.68;110254;1273;22247;-77
2023/12/18 13:08:09;;;;;;;7.10;1.50;;;;;;;8.50;78.85;101440.55;110175;1280;22161;-77
2023/12/18 13:11:04;;;;;;;8.60;1.40;;;;;;;8.52;78.75;101446.61;110127;1281;22582;-76
2023/12/18 13:13:55;;;;;;;10.20;1.80;;;;;;;8.55;79.00;101443.36;110158;1281;22113;-76
2023/12/18 13:16:45;;;;;;;8.70;1.50;;;;;;;8.58;79.07;101453.46;110282;1279;22203;-76